Huvudsida
METAR-TAF:

METAR-TAF

Flygplatser :

Moss flygplats. Rygge

Rygge, Norge

latitud: 59-23N, longitud: 010-47E, höjd: 5 m

Aktuellt väderrapport

Denna rapport gjordes för 36 minuter sedan, klockan 14:20 UTC
Vind 6 kt från väst/sydväst, varierande mellan syd/sydväst och väst
Temperatur 18°C
Fuktighet 32%
Tryck 1021 hPa
Sikt 10 km eller mer
Inga moln under 1 500 m eller inga cumulonimbus

METAR: ENRY 231420Z 24006KT 200V280 CAVOK 18/01 Q1021

Tid: 16:56 (14:56 UTC)

Väderprognos

Prognos gäller från 23 kl. 12 UTC till 24 kl. 12 UTC
Vind 5 kt från ost/nordost
Sikt 10 km eller mer
Inga moln under 1 500 m eller inga cumulonimbus
Temporärt
från 23 kl. 12 UTC till 23 kl. 15 UTC
Vind 10 kt från syd/sydost

TAF: ENRY 2312/2412 07005KT CAVOK TEMPO 2312/2315 16010KT

Aktuella väderrapporter och prognoser från 4000 flygplatser (METAR- och TAF-rapporter).

De tillgängliga stationerna syns som gula och röda prickar på kartan.

För musen över prickarna för att se namnen på stationerna.

Klicka sedan för att få väderrapporter och prognoser.

För att ändra kartan: Klicka på de gröna knapparna med ett svart kors på för att zooma in; den gröna knappen med ett streck på för att zooma ut; eller på de gröna pilarna för angränsande kartor.


METAR-TAF: